Terminal Aerodrome Forecast
Issued by NWS

Home | Current Version | Previous Version | Text Only | Print | Product List | Glossary On
Versions: 1 2 3 4 5 6 7 8 9 10 11 12 13
000
FTUS45 KBOI 251136
TAFBKE
TAF
KBKE 251136Z 2512/2612 32008KT P6SM SCT150
     FM251700 32010KT P6SM BKN120
     FM252200 32015KT P6SM -SHRA VCTS OVC060CB
     FM260400 31007KT P6SM BKN080=

USA.gov is the U.S. government's official web portal to all federal, state and local government web resources and services.